createdAt,value
2019-05-15T00:01:08.634Z,6.67
2019-05-15T00:03:39.226Z,5.57
2019-05-15T00:06:08.452Z,6.17
2019-05-15T00:08:38.683Z,7.60
2019-05-15T00:11:08.296Z,6.10
2019-05-15T00:13:39.014Z,5.43
2019-05-15T00:16:08.574Z,7.03
2019-05-15T00:18:39.081Z,7.37
2019-05-15T00:21:09.206Z,5.63
2019-05-15T00:23:38.851Z,7.30
2019-05-15T00:26:09.262Z,6.60
2019-05-15T00:28:39.032Z,6.13
2019-05-15T00:31:09.042Z,5.10
2019-05-15T00:33:39.388Z,6.27
2019-05-15T00:36:08.826Z,5.00
2019-05-15T00:38:39.043Z,4.90
2019-05-15T00:41:09.463Z,6.07
2019-05-15T00:43:58.473Z,5.70
2019-05-15T00:46:29.065Z,5.47
2019-05-15T00:48:59.158Z,4.90
2019-05-15T00:51:28.428Z,6.00
2019-05-15T00:53:58.939Z,5.37
2019-05-15T00:56:28.465Z,6.47
2019-05-15T00:58:58.857Z,6.60
2019-05-15T01:01:28.658Z,7.23
2019-05-15T01:03:58.608Z,5.63
2019-05-15T01:06:28.447Z,7.10
2019-05-15T01:08:58.826Z,6.37
2019-05-15T01:11:28.456Z,6.67
2019-05-15T01:13:58.522Z,5.70
2019-05-15T01:16:28.141Z,5.83
2019-05-15T01:18:58.551Z,6.77
2019-05-15T01:21:27.904Z,7.07
2019-05-15T01:23:58.810Z,8.63
2019-05-15T01:26:28.230Z,6.70
2019-05-15T01:28:58.399Z,7.03
2019-05-15T01:31:48.519Z,7.30
2019-05-15T01:34:18.462Z,6.90
2019-05-15T01:36:48.882Z,7.60
2019-05-15T01:39:18.468Z,8.67
2019-05-15T01:41:49.629Z,7.40
2019-05-15T01:44:18.029Z,8.47
2019-05-15T01:46:48.335Z,7.27
2019-05-15T01:49:18.695Z,9.13
2019-05-15T01:51:48.003Z,6.70
2019-05-15T01:54:18.659Z,6.53
2019-05-15T01:56:49.222Z,6.63
2019-05-15T01:59:18.961Z,7.47
2019-05-15T02:01:48.543Z,9.80
2019-05-15T02:04:19.610Z,6.77
2019-05-15T02:06:48.266Z,7.03
2019-05-15T02:09:18.511Z,6.47
2019-05-15T02:11:48.894Z,7.00
2019-05-15T02:14:18.993Z,6.40
2019-05-15T02:16:48.329Z,6.60
2019-05-15T02:19:19.207Z,6.73
2019-05-15T02:21:48.634Z,7.80
2019-05-15T02:24:18.937Z,6.40
2019-05-15T02:26:48.257Z,8.20
2019-05-15T02:29:20.365Z,7.33
2019-05-15T02:31:50.343Z,5.83
2019-05-15T02:34:19.538Z,6.67
2019-05-15T02:36:49.405Z,6.17
2019-05-15T02:39:18.920Z,8.13
2019-05-15T02:41:49.094Z,6.70
2019-05-15T02:44:20.000Z,7.07
2019-05-15T02:46:49.971Z,7.30
2019-05-15T02:49:19.290Z,6.10
2019-05-15T02:51:49.413Z,6.50
2019-05-15T02:54:19.571Z,7.23
2019-05-15T02:56:49.445Z,7.87
2019-05-15T02:59:19.430Z,7.80
2019-05-15T03:01:49.329Z,9.03
2019-05-15T03:04:19.899Z,7.23
2019-05-15T03:06:49.614Z,8.37
2019-05-15T03:09:19.012Z,8.13
2019-05-15T03:11:49.507Z,8.07
2019-05-15T03:14:21.487Z,7.93
2019-05-15T03:16:49.752Z,8.73
2019-05-15T03:19:19.414Z,8.00
2019-05-15T03:21:49.757Z,9.63
2019-05-15T03:24:19.554Z,6.50
2019-05-15T03:26:49.670Z,8.43
2019-05-15T03:29:20.902Z,7.57
2019-05-15T03:32:07.680Z,7.37
2019-05-15T03:34:27.541Z,9.03
2019-05-15T03:36:53.130Z,7.60
2019-05-15T03:39:19.876Z,6.97
2019-05-15T03:41:49.744Z,8.20
2019-05-15T03:44:19.829Z,8.73
2019-05-15T03:46:49.168Z,8.03
2019-05-15T03:49:19.913Z,8.30
2019-05-15T03:51:50.073Z,8.33
2019-05-15T03:54:19.217Z,9.17
2019-05-15T03:56:49.805Z,9.57
2019-05-15T03:59:19.292Z,14.23
2019-05-15T04:01:49.667Z,7.80
2019-05-15T04:04:18.973Z,7.83
2019-05-15T04:06:49.914Z,10.40
2019-05-15T04:09:18.965Z,8.07
2019-05-15T04:11:49.774Z,8.03
2019-05-15T04:14:19.353Z,8.63
2019-05-15T04:16:49.639Z,9.23
2019-05-15T04:19:39.143Z,8.50
2019-05-15T04:22:09.230Z,9.13
2019-05-15T04:24:39.463Z,8.67
2019-05-15T04:27:10.667Z,10.67
2019-05-15T04:29:39.719Z,11.27
2019-05-15T04:32:10.689Z,9.33
2019-05-15T04:34:39.639Z,10.57
2019-05-15T04:37:09.396Z,9.70
2019-05-15T04:39:40.059Z,11.40
2019-05-15T04:42:08.891Z,10.57
2019-05-15T04:44:39.560Z,9.17
2019-05-15T04:47:09.643Z,12.33
2019-05-15T04:49:39.431Z,9.33
2019-05-15T04:52:10.124Z,9.57
2019-05-15T04:54:40.205Z,9.60
2019-05-15T06:43:59.871Z,16.20
2019-05-15T06:46:28.559Z,13.00
2019-05-15T06:48:58.121Z,12.33
2019-05-15T06:51:28.841Z,15.00
2019-05-15T06:53:58.317Z,13.30
2019-05-15T06:56:28.147Z,13.57
2019-05-15T06:58:58.127Z,14.50
2019-05-15T07:01:29.262Z,13.97
2019-05-15T07:03:59.035Z,15.17
2019-05-15T07:06:28.646Z,13.90
2019-05-15T07:08:58.647Z,12.47
2019-05-15T07:11:28.168Z,13.60
2019-05-15T07:13:58.036Z,14.60
2019-05-15T07:16:28.362Z,12.30
2019-05-15T07:18:58.888Z,16.33
2019-05-15T07:21:28.518Z,10.10
2019-05-15T07:23:58.337Z,11.90
2019-05-15T07:26:29.038Z,16.20
2019-05-15T07:28:59.626Z,13.43
2019-05-15T07:31:28.849Z,16.87
2019-05-15T07:33:59.839Z,16.77
2019-05-15T07:36:28.734Z,15.00
2019-05-15T07:38:58.089Z,13.33
2019-05-15T07:41:28.408Z,12.57
2019-05-15T07:43:58.563Z,12.43
2019-05-15T07:46:28.906Z,14.27
2019-05-15T07:48:58.336Z,14.30
2019-05-15T07:51:28.733Z,15.63
2019-05-15T07:53:58.354Z,12.23
2019-05-15T07:56:28.908Z,13.37
2019-05-15T07:58:58.614Z,15.90
2019-05-15T08:01:29.062Z,14.90
2019-05-15T08:04:14.343Z,15.30
2019-05-15T08:06:28.937Z,14.43
2019-05-15T08:08:59.207Z,10.90
2019-05-15T08:11:28.602Z,13.57
2019-05-15T08:13:58.203Z,15.53
2019-05-15T08:16:31.519Z,14.43
2019-05-15T08:19:28.914Z,18.53
2019-05-15T08:21:58.172Z,13.83
2019-05-15T08:24:29.877Z,13.33
2019-05-15T08:42:57.138Z,11.03
2019-05-15T08:45:18.832Z,13.57
2019-05-15T08:47:49.230Z,13.73
2019-05-15T08:50:18.537Z,12.90
2019-05-15T08:52:48.775Z,14.83
2019-05-15T08:55:20.100Z,13.27
2019-05-15T08:57:55.458Z,14.67
2019-05-15T09:00:19.140Z,11.73
2019-05-15T09:02:48.914Z,12.70
2019-05-15T09:05:18.777Z,11.47
2019-05-15T09:07:48.610Z,12.27
2019-05-15T09:10:18.514Z,10.43
2019-05-15T09:12:47.234Z,11.30
2019-05-15T09:15:18.500Z,10.93
2019-05-15T09:17:48.817Z,10.40
2019-05-15T09:20:19.412Z,11.93
2019-05-15T09:22:49.149Z,12.43
2019-05-15T09:25:19.326Z,11.87
2019-05-15T09:27:48.832Z,10.30
2019-05-15T09:30:18.341Z,13.03
2019-05-15T09:32:48.358Z,10.93
2019-05-15T09:35:20.839Z,10.50
2019-05-15T09:37:49.537Z,9.80
2019-05-15T09:40:18.850Z,9.93
2019-05-15T09:42:48.708Z,15.80
2019-05-15T09:45:18.823Z,9.80
2019-05-15T09:47:48.431Z,12.73
2019-05-15T09:50:19.344Z,13.00
2019-05-15T09:52:50.212Z,12.63
2019-05-15T09:55:19.337Z,10.77
2019-05-15T09:57:49.050Z,11.53
2019-05-15T10:00:19.061Z,10.30
2019-05-15T10:02:48.558Z,11.27
2019-05-15T10:05:18.685Z,11.77
2019-05-15T10:07:47.603Z,14.07
2019-05-15T10:10:16.308Z,11.43
2019-05-15T10:12:44.986Z,12.10
2019-05-15T10:15:14.435Z,13.03
2019-05-15T10:17:43.087Z,11.40
2019-05-15T10:20:13.000Z,12.37
2019-05-15T10:22:41.688Z,11.83
2019-05-15T10:25:10.781Z,12.70
2019-05-15T10:27:39.926Z,16.20
2019-05-15T10:30:09.693Z,12.87
2019-05-15T10:32:39.715Z,13.10
2019-05-15T10:35:24.560Z,10.70
2019-05-15T10:37:40.210Z,12.57
2019-05-15T10:40:09.442Z,10.50
2019-05-15T10:42:39.911Z,11.80
2019-05-15T10:45:11.364Z,10.73
2019-05-15T10:47:39.981Z,13.57
2019-05-15T10:50:10.439Z,11.00
2019-05-15T10:52:39.292Z,10.57
2019-05-15T10:55:09.470Z,13.73
2019-05-15T10:57:42.707Z,11.83
2019-05-15T11:00:09.887Z,15.13
2019-05-15T11:02:43.366Z,13.60
2019-05-15T11:05:19.311Z,12.83
2019-05-15T11:07:48.350Z,15.50
2019-05-15T11:10:18.627Z,14.10
2019-05-15T11:12:47.561Z,13.20
2019-05-15T11:15:18.408Z,12.63
2019-05-15T11:17:49.180Z,13.17
2019-05-15T11:20:18.781Z,13.53
2019-05-15T11:22:50.028Z,14.47
2019-05-15T11:25:18.418Z,13.93
2019-05-15T11:27:48.450Z,16.63
2019-05-15T11:30:19.200Z,11.90
2019-05-15T11:32:48.722Z,10.30
2019-05-15T11:35:18.907Z,12.03
2019-05-15T11:37:55.886Z,10.97
2019-05-15T11:40:19.031Z,11.13
2019-05-15T11:42:48.761Z,12.03
2019-05-15T11:45:18.557Z,12.97
2019-05-15T11:47:48.299Z,12.30
2019-05-15T11:50:20.447Z,17.77
2019-05-15T11:52:49.234Z,13.33
2019-05-15T11:55:18.240Z,12.17
2019-05-15T11:57:50.499Z,12.77
2019-05-15T12:00:26.487Z,13.87
2019-05-15T12:02:49.211Z,10.97
2019-05-15T12:05:18.535Z,13.07
2019-05-15T12:07:47.867Z,11.37
2019-05-15T12:10:18.445Z,15.40
2019-05-15T12:12:49.694Z,14.60
2019-05-15T12:15:19.114Z,11.97
2019-05-15T12:17:48.599Z,11.93
2019-05-15T12:20:23.545Z,16.67
2019-05-15T12:22:52.252Z,9.93
2019-05-15T12:25:20.953Z,11.30
2019-05-15T12:27:49.670Z,13.17
2019-05-15T12:30:19.893Z,12.17
2019-05-15T12:32:49.459Z,11.80
2019-05-15T12:35:20.408Z,11.03
2019-05-15T12:37:48.616Z,12.00
2019-05-15T13:00:23.524Z,10.43
2019-05-15T13:02:52.134Z,12.70
2019-05-15T13:05:20.767Z,12.37
2019-05-15T13:07:49.831Z,19.90
2019-05-15T13:10:18.722Z,10.97
2019-05-15T13:12:59.176Z,13.00
2019-05-15T13:15:18.928Z,14.47
2019-05-15T13:17:52.999Z,12.93
2019-05-15T13:20:18.601Z,11.23
2019-05-15T13:25:16.100Z,10.90
2019-05-15T13:27:45.490Z,13.10
2019-05-15T13:30:14.535Z,11.60
2019-05-15T13:32:43.248Z,11.20
2019-05-15T13:35:12.472Z,10.30
2019-05-15T13:37:41.106Z,10.53
2019-05-15T13:40:11.431Z,10.57
2019-05-15T13:42:40.210Z,10.27
2019-05-15T13:45:12.838Z,12.77
2019-05-15T13:47:40.475Z,12.83
2019-05-15T13:50:09.313Z,14.37
2019-05-15T13:52:39.287Z,11.97
2019-05-15T13:55:08.695Z,13.00
2019-05-15T13:57:38.280Z,11.20
2019-05-15T14:00:09.585Z,13.73
2019-05-15T14:02:38.839Z,12.30
2019-05-15T14:05:09.428Z,10.43
2019-05-15T14:07:48.659Z,13.37
2019-05-15T14:10:09.741Z,15.13
2019-05-15T14:12:38.661Z,9.97
2019-05-15T14:15:09.199Z,13.00
2019-05-15T14:17:48.429Z,11.03
2019-05-15T14:20:17.413Z,10.53
2019-05-15T14:22:48.412Z,10.37
2019-05-15T14:25:18.160Z,9.40
2019-05-15T14:27:48.651Z,9.83
2019-05-15T14:30:18.149Z,11.63
2019-05-15T14:32:48.434Z,11.70
2019-05-15T14:35:17.995Z,9.63
2019-05-15T14:38:01.873Z,10.03
2019-05-15T14:40:17.827Z,37.53
2019-05-15T14:42:48.567Z,13.53
2019-05-15T14:45:18.894Z,10.33
2019-05-15T14:47:49.220Z,10.43
2019-05-15T14:50:17.738Z,9.37
2019-05-15T14:52:47.979Z,11.33
2019-05-15T14:55:17.570Z,10.07
2019-05-15T14:57:48.793Z,9.90
2019-05-15T15:00:19.861Z,11.40
2019-05-15T15:02:49.454Z,13.37
2019-05-15T15:05:21.735Z,13.33
2019-05-15T15:07:49.221Z,11.10
2019-05-15T15:10:20.214Z,12.60
2019-05-15T15:12:49.920Z,13.77
2019-05-15T15:15:18.982Z,10.40
2019-05-15T15:17:49.263Z,9.63
2019-05-15T15:20:18.034Z,12.20
2019-05-15T15:22:48.539Z,10.13
2019-05-15T15:25:17.107Z,11.33
2019-05-15T15:27:47.805Z,10.20
2019-05-15T15:30:18.764Z,10.00
2019-05-15T15:32:48.975Z,11.10
2019-05-15T15:35:16.929Z,10.67
2019-05-15T15:37:45.565Z,10.63
2019-05-15T15:40:14.476Z,10.57
2019-05-15T15:42:43.165Z,11.43
2019-05-15T15:45:13.439Z,10.00
2019-05-15T15:47:42.136Z,10.37
2019-05-15T15:50:11.364Z,11.70
2019-05-15T15:52:40.046Z,12.33
2019-05-15T15:55:09.266Z,9.27
2019-05-15T15:57:39.809Z,9.90
2019-05-15T16:00:12.177Z,14.47
2019-05-15T16:02:41.356Z,8.30
2019-05-15T16:05:10.379Z,9.47
2019-05-15T16:07:39.495Z,10.53
2019-05-15T16:10:08.770Z,8.97
2019-05-15T16:12:38.905Z,11.60
2019-05-15T16:15:09.085Z,8.87
2019-05-15T16:17:38.633Z,10.30
2019-05-15T16:20:09.317Z,13.03
2019-05-15T16:22:38.519Z,8.23
2019-05-15T16:25:09.979Z,9.20
2019-05-15T16:27:38.840Z,8.53
2019-05-15T16:30:09.414Z,10.20
2019-05-15T16:32:38.776Z,10.33
2019-05-15T16:35:09.199Z,8.57
2019-05-15T16:37:38.719Z,8.57
2019-05-15T16:40:08.436Z,7.07
2019-05-15T16:42:38.475Z,7.93
2019-05-15T16:45:11.013Z,8.80
2019-05-15T16:47:40.276Z,8.87
2019-05-15T16:50:09.418Z,7.90
2019-05-15T16:52:38.743Z,7.37
2019-05-15T16:55:09.191Z,8.10
2019-05-15T16:57:39.004Z,9.17
2019-05-15T17:00:09.980Z,8.80
2019-05-15T17:02:39.639Z,10.10
2019-05-15T17:05:09.986Z,8.75
2019-05-15T17:07:39.238Z,6.63
2019-05-15T17:10:08.822Z,12.13
2019-05-15T17:12:38.769Z,10.07
2019-05-15T17:15:10.047Z,7.97
2019-05-15T17:17:39.620Z,9.10
2019-05-15T17:20:10.185Z,9.63
2019-05-15T17:22:39.154Z,6.80
2019-05-15T17:25:09.404Z,9.17
2019-05-15T17:27:38.379Z,10.73
2019-05-15T17:30:09.265Z,6.73
2019-05-15T17:32:39.359Z,8.10
2019-05-15T17:35:10.150Z,7.30
2019-05-15T17:37:39.011Z,7.93
2019-05-15T17:40:08.838Z,8.73
2019-05-15T17:42:38.940Z,7.03
2019-05-15T17:45:09.811Z,6.03
2019-05-15T17:47:40.088Z,8.87
2019-05-15T17:50:09.475Z,7.77
2019-05-15T17:52:38.710Z,7.53
2019-05-15T17:55:08.143Z,9.00
2019-05-15T17:57:38.840Z,6.47
2019-05-15T18:00:12.829Z,9.37
2019-05-15T18:02:41.256Z,8.73
2019-05-15T18:05:10.469Z,8.40
2019-05-15T18:07:39.289Z,9.10
2019-05-15T18:10:08.772Z,5.43
2019-05-15T18:12:38.797Z,10.27
2019-05-15T18:15:09.020Z,7.00
2019-05-15T18:17:39.386Z,9.10
2019-05-15T18:20:10.044Z,8.13
2019-05-15T18:22:39.025Z,6.67
2019-05-15T18:25:09.059Z,6.70
2019-05-15T18:27:38.933Z,9.20
2019-05-15T18:30:09.306Z,7.33
2019-05-15T18:32:39.226Z,8.57
2019-05-15T18:35:08.774Z,11.43
2019-05-15T18:37:39.237Z,7.80
2019-05-15T18:40:10.053Z,7.17
2019-05-15T18:42:39.566Z,5.40
2019-05-15T18:45:08.935Z,7.57
2019-05-15T18:47:39.009Z,7.00
2019-05-15T18:50:12.755Z,8.03
2019-05-15T18:52:38.873Z,7.07
2019-05-15T18:55:08.181Z,8.47
2019-05-15T18:57:38.618Z,4.43
2019-05-15T19:00:10.003Z,6.77
2019-05-15T19:02:39.267Z,6.23
2019-05-15T19:05:08.767Z,8.17
2019-05-15T19:07:38.336Z,6.90
2019-05-15T19:10:10.557Z,9.90
2019-05-15T19:12:39.273Z,5.70
2019-05-15T19:15:09.573Z,8.03
2019-05-15T19:17:39.040Z,10.20
2019-05-15T19:20:08.572Z,10.97
2019-05-15T19:22:39.607Z,12.13
2019-05-15T19:25:08.998Z,12.73
2019-05-15T19:27:39.309Z,14.33
2019-05-15T19:30:11.467Z,14.33
2019-05-15T19:32:40.201Z,10.70
2019-05-15T19:35:09.202Z,12.33
2019-05-15T19:37:38.609Z,11.87
2019-05-15T19:40:09.371Z,12.90
2019-05-15T19:42:38.525Z,13.50
2019-05-15T19:45:08.733Z,14.47
2019-05-15T19:47:38.680Z,13.90
2019-05-15T19:50:08.678Z,17.13
2019-05-15T19:52:37.422Z,16.03
2019-05-15T19:55:08.821Z,16.73
2019-05-15T19:57:39.062Z,13.50
2019-05-15T20:00:10.716Z,14.67
2019-05-15T20:02:39.375Z,13.30
2019-05-15T20:05:09.161Z,13.93
2019-05-15T20:07:39.261Z,16.97
2019-05-15T20:10:09.890Z,12.30
2019-05-15T20:12:39.289Z,12.10
2019-05-15T20:15:09.315Z,12.67
2019-05-15T20:17:38.811Z,11.43
2019-05-15T20:20:08.954Z,13.60
2019-05-15T20:22:40.343Z,12.43
2019-05-15T20:25:08.731Z,12.70
2019-05-15T20:27:39.133Z,12.57
2019-05-15T20:30:09.664Z,12.03
2019-05-15T20:32:38.909Z,13.30
2019-05-15T20:35:08.701Z,14.13
2019-05-15T20:37:39.162Z,13.53
2019-05-15T20:40:09.118Z,12.60
2019-05-15T20:42:38.604Z,14.57
2019-05-15T20:45:12.049Z,12.33
2019-05-15T20:47:39.422Z,14.57
2019-05-15T20:50:09.790Z,14.53
2019-05-15T20:52:39.679Z,14.70
2019-05-15T20:55:08.916Z,18.20
2019-05-15T20:57:40.662Z,17.23
2019-05-15T21:00:10.556Z,12.73
2019-05-15T21:02:39.549Z,16.10
2019-05-15T21:05:08.930Z,15.37
2019-05-15T21:07:40.002Z,12.87
2019-05-15T21:10:09.208Z,14.57
2019-05-15T21:12:41.156Z,14.37
2019-05-15T21:15:09.919Z,13.40
2019-05-15T21:17:40.099Z,12.73
2019-05-15T21:20:09.699Z,14.63
2019-05-15T21:22:40.246Z,14.87
2019-05-15T21:25:10.690Z,16.53
2019-05-15T21:27:42.401Z,13.37
2019-05-15T21:30:11.014Z,14.10
2019-05-15T21:32:39.705Z,12.53
2019-05-15T21:35:09.354Z,14.27
2019-05-15T21:37:38.848Z,12.33
2019-05-15T21:40:08.639Z,13.27
2019-05-15T21:42:38.850Z,12.20
2019-05-15T21:45:14.220Z,14.60
2019-05-15T21:47:39.479Z,11.93
2019-05-15T21:50:08.692Z,13.13
2019-05-15T21:52:39.135Z,13.73
2019-05-15T21:55:09.552Z,12.47
2019-05-15T21:57:40.418Z,13.63
2019-05-15T22:00:11.898Z,13.07
2019-05-15T22:02:41.060Z,13.60
2019-05-15T22:05:09.850Z,14.50
2019-05-15T22:07:38.883Z,16.97
2019-05-15T22:10:10.540Z,15.00
2019-05-15T22:12:38.618Z,13.67
2019-05-15T22:15:09.169Z,13.80
2019-05-15T22:17:38.925Z,13.07
2019-05-15T22:20:08.843Z,14.13
2019-05-15T22:22:37.718Z,14.47
2019-05-15T22:25:10.773Z,12.40
2019-05-15T22:27:38.254Z,13.43
2019-05-15T22:30:08.301Z,16.63
2019-05-15T22:32:41.228Z,11.93
2019-05-15T22:35:13.479Z,14.60
2019-05-15T22:37:41.504Z,13.87
2019-05-15T22:40:09.901Z,12.17
2019-05-15T22:42:39.206Z,12.87
2019-05-15T22:45:11.674Z,14.63
2019-05-15T22:47:39.447Z,12.60
2019-05-15T22:50:08.743Z,14.47
2019-05-15T22:52:38.839Z,13.87
2019-05-15T22:55:28.969Z,16.07
2019-05-15T22:57:58.752Z,13.37
2019-05-15T23:00:28.974Z,14.20
2019-05-15T23:02:58.233Z,14.07
2019-05-15T23:05:29.275Z,12.17
2019-05-15T23:07:59.000Z,13.00
2019-05-15T23:10:29.155Z,12.97
2019-05-15T23:12:58.537Z,14.27
2019-05-15T23:15:28.165Z,15.80
2019-05-15T23:17:58.286Z,14.83
2019-05-15T23:20:28.642Z,14.30
2019-05-15T23:22:58.471Z,13.37
2019-05-15T23:25:28.940Z,15.07
2019-05-15T23:27:58.175Z,11.60
2019-05-15T23:30:28.778Z,13.00
2019-05-15T23:32:58.368Z,11.97
2019-05-15T23:35:35.434Z,14.07
2019-05-15T23:37:58.178Z,11.80
2019-05-15T23:40:28.859Z,14.40
2019-05-15T23:42:57.455Z,12.13
2019-05-15T23:45:26.126Z,14.70
2019-05-15T23:47:55.065Z,15.73
2019-05-15T23:50:23.746Z,12.77
2019-05-15T23:52:52.399Z,12.40
2019-05-15T23:55:21.115Z,14.57
2019-05-15T23:57:49.735Z,13.53
